sensor_id;sensor_type;location;lat;lon;timestamp;pressure;altitude;pressure_sealevel;temperature;humidity
56074;BME280;41950;55.840;37.442;2023-05-24T00:01:33;99663.16;;;16.17;86.07
56074;BME280;41950;55.840;37.442;2023-05-24T00:03:59;99657.06;;;16.16;85.39
56074;BME280;41950;55.840;37.442;2023-05-24T00:06:25;99669.84;;;16.24;85.61
56074;BME280;41950;55.840;37.442;2023-05-24T00:08:52;99637.50;;;16.03;85.26
56074;BME280;41950;55.840;37.442;2023-05-24T00:11:19;99664.94;;;16.16;84.36
56074;BME280;41950;55.840;37.442;2023-05-24T00:13:45;99657.91;;;16.17;83.75
56074;BME280;41950;55.840;37.442;2023-05-24T00:16:11;99637.44;;;16.04;83.58
56074;BME280;41950;55.840;37.442;2023-05-24T00:18:37;99657.06;;;16.16;83.72
56074;BME280;41950;55.840;37.442;2023-05-24T00:21:07;99657.22;;;16.12;84.11
56074;BME280;41950;55.840;37.442;2023-05-24T00:23:34;99647.91;;;16.04;84.26
56074;BME280;41950;55.840;37.442;2023-05-24T00:26:02;99660.94;;;16.06;84.68
56074;BME280;41950;55.840;37.442;2023-05-24T00:28:28;99660.28;;;16.01;85.03
56074;BME280;41950;55.840;37.442;2023-05-24T00:30:54;99628.69;;;15.84;85.50
56074;BME280;41950;55.840;37.442;2023-05-24T00:33:19;99627.09;;;15.80;85.83
56074;BME280;41950;55.840;37.442;2023-05-24T00:35:48;99642.47;;;15.89;85.61
56074;BME280;41950;55.840;37.442;2023-05-24T00:38:14;99633.06;;;15.83;85.87
56074;BME280;41950;55.840;37.442;2023-05-24T00:40:40;99637.31;;;15.86;85.83
56074;BME280;41950;55.840;37.442;2023-05-24T00:43:06;99609.16;;;15.70;85.74
56074;BME280;41950;55.840;37.442;2023-05-24T00:45:31;99616.09;;;15.71;85.68
56074;BME280;41950;55.840;37.442;2023-05-24T00:47:57;99654.63;;;15.90;85.66
56074;BME280;41950;55.840;37.442;2023-05-24T00:50:23;99633.06;;;15.83;85.53
56074;BME280;41950;55.840;37.442;2023-05-24T00:52:50;99624.72;;;15.73;85.64
56074;BME280;41950;55.840;37.442;2023-05-24T00:55:16;99644.38;;;15.84;84.91
56074;BME280;41950;55.840;37.442;2023-05-24T00:57:42;99638.22;;;15.85;84.72
56074;BME280;41950;55.840;37.442;2023-05-24T01:00:08;99621.31;;;15.71;84.76
56074;BME280;41950;55.840;37.442;2023-05-24T01:02:35;99652.13;;;15.87;84.89
56074;BME280;41950;55.840;37.442;2023-05-24T01:05:03;99636.53;;;15.84;84.56
56074;BME280;41950;55.840;37.442;2023-05-24T01:07:53;99620.28;;;15.75;84.36
56074;BME280;41950;55.840;37.442;2023-05-24T01:10:44;99642.56;;;15.86;84.14
56074;BME280;41950;55.840;37.442;2023-05-24T01:13:45;99605.81;;;15.67;84.18
56074;BME280;41950;55.840;37.442;2023-05-24T01:16:23;99635.88;;;15.79;84.01
56074;BME280;41950;55.840;37.442;2023-05-24T01:18:54;99620.88;;;15.82;83.56
56074;BME280;41950;55.840;37.442;2023-05-24T01:29:19;99585.19;;;15.58;83.92
56074;BME280;41950;55.840;37.442;2023-05-24T01:31:46;99584.34;;;15.57;84.29
56074;BME280;41950;55.840;37.442;2023-05-24T01:34:11;99570.13;;;15.42;84.66
56074;BME280;41950;55.840;37.442;2023-05-24T01:36:37;99587.03;;;15.56;85.07
56074;BME280;41950;55.840;37.442;2023-05-24T01:39:03;99612.56;;;15.72;85.18
56074;BME280;41950;55.840;37.442;2023-05-24T01:41:46;99609.94;;;15.72;85.98
56074;BME280;41950;55.840;37.442;2023-05-24T01:44:28;99591.03;;;15.66;86.06
56074;BME280;41950;55.840;37.442;2023-05-24T01:49:37;99574.91;;;15.53;86.30
56074;BME280;41950;55.840;37.442;2023-05-24T01:52:15;99604.78;;;15.71;86.31
56074;BME280;41950;55.840;37.442;2023-05-24T01:54:46;99597.91;;;15.68;86.44
56074;BME280;41950;55.840;37.442;2023-05-24T01:57:13;99590.91;;;15.69;86.28
56074;BME280;41950;55.840;37.442;2023-05-24T01:59:41;99602.75;;;15.77;86.16
56074;BME280;41950;55.840;37.442;2023-05-24T02:02:09;99544.94;;;15.40;85.97
56074;BME280;41950;55.840;37.442;2023-05-24T02:04:35;99580.03;;;15.56;85.91
56074;BME280;41950;55.840;37.442;2023-05-24T02:07:01;99603.63;;;15.78;85.70
56074;BME280;41950;55.840;37.442;2023-05-24T02:09:27;99597.00;;;15.69;85.78
56074;BME280;41950;55.840;37.442;2023-05-24T02:11:52;99592.53;;;15.71;85.69
56074;BME280;41950;55.840;37.442;2023-05-24T02:14:18;99588.34;;;15.67;85.72
56074;BME280;41950;55.840;37.442;2023-05-24T02:16:45;99554.91;;;15.52;85.58
56074;BME280;41950;55.840;37.442;2023-05-24T02:19:14;99612.84;;;15.87;85.47
56074;BME280;41950;55.840;37.442;2023-05-24T02:21:42;99580.38;;;15.70;85.10
56074;BME280;41950;55.840;37.442;2023-05-24T02:24:07;99595.75;;;15.78;84.87
56074;BME280;41950;55.840;37.442;2023-05-24T02:26:38;99590.72;;;15.73;84.79
56074;BME280;41950;55.840;37.442;2023-05-24T02:29:04;99617.13;;;15.89;84.68
56074;BME280;41950;55.840;37.442;2023-05-24T02:31:29;99608.38;;;15.90;84.50
56074;BME280;41950;55.840;37.442;2023-05-24T02:33:56;99584.56;;;15.74;84.46
56074;BME280;41950;55.840;37.442;2023-05-24T02:36:22;99594.78;;;15.81;83.86
56074;BME280;41950;55.840;37.442;2023-05-24T02:38:49;99576.97;;;15.68;83.71
56074;BME280;41950;55.840;37.442;2023-05-24T02:41:15;99593.94;;;15.80;83.64
56074;BME280;41950;55.840;37.442;2023-05-24T02:43:44;99555.25;;;15.66;83.51
56074;BME280;41950;55.840;37.442;2023-05-24T02:46:10;99583.91;;;15.91;83.10
56074;BME280;41950;55.840;37.442;2023-05-24T02:48:36;99600.81;;;16.04;82.81
56074;BME280;41950;55.840;37.442;2023-05-24T02:51:02;99577.63;;;15.95;82.67
56074;BME280;41950;55.840;37.442;2023-05-24T02:53:28;99588.44;;;16.08;82.47
56074;BME280;41950;55.840;37.442;2023-05-24T02:55:54;99564.22;;;16.03;82.15
56074;BME280;41950;55.840;37.442;2023-05-24T02:58:20;99582.94;;;16.14;81.93
56074;BME280;41950;55.840;37.442;2023-05-24T03:00:45;99585.47;;;16.17;82.08
56074;BME280;41950;55.840;37.442;2023-05-24T03:03:11;99589.78;;;16.18;81.53
56074;BME280;41950;55.840;37.442;2023-05-24T03:05:37;99582.84;;;16.17;81.26
56074;BME280;41950;55.840;37.442;2023-05-24T03:08:02;99599.78;;;16.29;80.92
56074;BME280;41950;55.840;37.442;2023-05-24T03:10:28;99580.16;;;16.19;80.68
56074;BME280;41950;55.840;37.442;2023-05-24T03:12:54;99580.88;;;16.22;80.58
56074;BME280;41950;55.840;37.442;2023-05-24T03:15:20;99585.84;;;16.28;80.06
56074;BME280;41950;55.840;37.442;2023-05-24T03:17:45;99584.94;;;16.29;79.92
56074;BME280;41950;55.840;37.442;2023-05-24T03:20:11;99597.31;;;16.46;79.74
56074;BME280;41950;55.840;37.442;2023-05-24T03:22:37;99586.09;;;16.43;79.36
56074;BME280;41950;55.840;37.442;2023-05-24T03:25:03;99561.16;;;16.34;78.82
56074;BME280;41950;55.840;37.442;2023-05-24T03:27:31;99572.13;;;16.44;78.30
56074;BME280;41950;55.840;37.442;2023-05-24T03:29:57;99584.81;;;16.53;78.43
56074;BME280;41950;55.840;37.442;2023-05-24T03:32:23;99597.63;;;16.59;78.43
56074;BME280;41950;55.840;37.442;2023-05-24T03:34:48;99595.00;;;16.59;78.15
56074;BME280;41950;55.840;37.442;2023-05-24T03:37:15;99571.19;;;16.45;78.39
56074;BME280;41950;55.840;37.442;2023-05-24T03:39:40;99602.75;;;16.62;78.58
56074;BME280;41950;55.840;37.442;2023-05-24T03:42:06;99573.53;;;16.51;78.47
56074;BME280;41950;55.840;37.442;2023-05-24T03:44:32;99572.34;;;16.58;78.20
56074;BME280;41950;55.840;37.442;2023-05-24T03:46:58;99576.81;;;16.56;78.04
56074;BME280;41950;55.840;37.442;2023-05-24T03:49:23;99572.16;;;16.62;78.09
56074;BME280;41950;55.840;37.442;2023-05-24T03:51:49;99556.63;;;16.58;77.78
56074;BME280;41950;55.840;37.442;2023-05-24T03:54:15;99572.50;;;16.75;77.42
56074;BME280;41950;55.840;37.442;2023-05-24T03:56:42;99564.31;;;16.83;77.05
56074;BME280;41950;55.840;37.442;2023-05-24T03:59:08;99561.03;;;16.96;76.47
56074;BME280;41950;55.840;37.442;2023-05-24T04:01:34;99548.25;;;17.09;75.96
56074;BME280;41950;55.840;37.442;2023-05-24T04:04:02;99550.28;;;17.21;75.34
56074;BME280;41950;55.840;37.442;2023-05-24T04:06:28;99565.88;;;17.43;75.02
56074;BME280;41950;55.840;37.442;2023-05-24T04:08:56;99553.91;;;17.56;74.90
56074;BME280;41950;55.840;37.442;2023-05-24T04:11:22;99530.69;;;17.47;74.26
56074;BME280;41950;55.840;37.442;2023-05-24T04:13:51;99556.16;;;17.64;74.29
56074;BME280;41950;55.840;37.442;2023-05-24T04:16:17;99543.25;;;17.59;73.96
56074;BME280;41950;55.840;37.442;2023-05-24T04:18:43;99563.94;;;17.66;73.24
56074;BME280;41950;55.840;37.442;2023-05-24T04:21:10;99531.00;;;17.41;73.10
56074;BME280;41950;55.840;37.442;2023-05-24T04:23:36;99542.75;;;17.51;72.99
56074;BME280;41950;55.840;37.442;2023-05-24T04:26:01;99533.06;;;17.53;73.58
56074;BME280;41950;55.840;37.442;2023-05-24T04:28:27;99544.94;;;17.60;73.17
56074;BME280;41950;55.840;37.442;2023-05-24T04:30:53;99503.00;;;17.23;72.64
56074;BME280;41950;55.840;37.442;2023-05-24T04:33:20;99548.22;;;17.47;72.59
56074;BME280;41950;55.840;37.442;2023-05-24T04:35:46;99509.31;;;17.19;72.96
56074;BME280;41950;55.840;37.442;2023-05-24T04:38:12;99544.41;;;17.35;72.73
56074;BME280;41950;55.840;37.442;2023-05-24T04:40:38;99549.50;;;17.38;72.61
56074;BME280;41950;55.840;37.442;2023-05-24T04:43:04;99554.97;;;17.34;72.29
56074;BME280;41950;55.840;37.442;2023-05-24T04:45:32;99553.28;;;17.33;72.36
56074;BME280;41950;55.840;37.442;2023-05-24T04:47:58;99537.69;;;17.29;72.54
56074;BME280;41950;55.840;37.442;2023-05-24T04:50:24;99530.00;;;17.25;72.63
56074;BME280;41950;55.840;37.442;2023-05-24T04:52:50;99566.72;;;17.44;72.12
56074;BME280;41950;55.840;37.442;2023-05-24T04:55:16;99567.66;;;17.43;71.92
56074;BME280;41950;55.840;37.442;2023-05-24T04:57:42;99552.13;;;17.38;72.03
56074;BME280;41950;55.840;37.442;2023-05-24T05:00:08;99562.19;;;17.47;71.93
56074;BME280;41950;55.840;37.442;2023-05-24T05:02:34;99511.38;;;17.31;71.82
56074;BME280;41950;55.840;37.442;2023-05-24T05:05:01;99546.72;;;17.60;72.10
56074;BME280;41950;55.840;37.442;2023-05-24T05:07:26;99561.91;;;17.72;71.50
56074;BME280;41950;55.840;37.442;2023-05-24T05:09:52;99577.84;;;17.86;70.91
56074;BME280;41950;55.840;37.442;2023-05-24T05:12:18;99567.56;;;17.99;70.97
56074;BME280;41950;55.840;37.442;2023-05-24T05:14:43;99565.81;;;18.00;70.34
56074;BME280;41950;55.840;37.442;2023-05-24T05:17:09;99571.06;;;18.17;70.27
56074;BME280;41950;55.840;37.442;2023-05-24T05:19:35;99549.97;;;18.18;69.26
56074;BME280;41950;55.840;37.442;2023-05-24T05:22:00;99573.69;;;18.34;69.39
56074;BME280;41950;55.840;37.442;2023-05-24T05:24:26;99552.38;;;18.40;68.61
56074;BME280;41950;55.840;37.442;2023-05-24T05:26:52;99569.63;;;18.63;67.85
56074;BME280;41950;55.840;37.442;2023-05-24T05:29:18;99539.63;;;18.67;67.95
56074;BME280;41950;55.840;37.442;2023-05-24T05:31:43;99575.41;;;19.03;67.17
56074;BME280;41950;55.840;37.442;2023-05-24T05:34:09;99579.66;;;19.05;67.19
56074;BME280;41950;55.840;37.442;2023-05-24T05:36:36;99538.22;;;18.93;66.98
56074;BME280;41950;55.840;37.442;2023-05-24T05:39:06;99558.53;;;19.23;67.05
56074;BME280;41950;55.840;37.442;2023-05-24T05:41:37;99555.84;;;19.24;66.19
56074;BME280;41950;55.840;37.442;2023-05-24T05:44:03;99569.81;;;19.40;66.06
56074;BME280;41950;55.840;37.442;2023-05-24T05:46:28;99556.59;;;19.42;66.19
56074;BME280;41950;55.840;37.442;2023-05-24T05:48:54;99549.13;;;19.50;65.45
56074;BME280;41950;55.840;37.442;2023-05-24T05:51:20;99566.81;;;19.64;64.91
56074;BME280;41950;55.840;37.442;2023-05-24T05:53:45;99566.13;;;19.76;64.58
56074;BME280;41950;55.840;37.442;2023-05-24T05:56:11;99555.25;;;19.82;64.20
56074;BME280;41950;55.840;37.442;2023-05-24T05:58:37;99545.00;;;19.92;64.03
56074;BME280;41950;55.840;37.442;2023-05-24T06:01:03;99565.34;;;20.20;64.02
56074;BME280;41950;55.840;37.442;2023-05-24T06:03:29;99550.25;;;20.08;63.11
56074;BME280;41950;55.840;37.442;2023-05-24T06:05:55;99521.63;;;20.01;62.91
56074;BME280;41950;55.840;37.442;2023-05-24T06:08:21;99539.25;;;20.15;62.82
56074;BME280;41950;55.840;37.442;2023-05-24T06:10:46;99535.59;;;20.18;63.21
56074;BME280;41950;55.840;37.442;2023-05-24T06:13:12;99537.63;;;20.28;61.62
56074;BME280;41950;55.840;37.442;2023-05-24T06:15:38;99520.56;;;20.34;61.92
56074;BME280;41950;55.840;37.442;2023-05-24T06:18:05;99538.50;;;20.43;61.54
56074;BME280;41950;55.840;37.442;2023-05-24T06:20:31;99536.97;;;20.39;61.44
56074;BME280;41950;55.840;37.442;2023-05-24T06:22:57;99542.66;;;20.47;61.17
56074;BME280;41950;55.840;37.442;2023-05-24T06:25:23;99491.81;;;20.45;60.06
56074;BME280;41950;55.840;37.442;2023-05-24T06:27:49;99494.66;;;20.56;59.62
56074;BME280;41950;55.840;37.442;2023-05-24T06:30:16;99502.19;;;20.62;59.78
56074;BME280;41950;55.840;37.442;2023-05-24T06:32:42;99539.69;;;20.82;59.67
56074;BME280;41950;55.840;37.442;2023-05-24T06:35:08;99529.19;;;20.80;59.35
56074;BME280;41950;55.840;37.442;2023-05-24T06:37:34;99513.00;;;20.86;59.25
56074;BME280;41950;55.840;37.442;2023-05-24T06:40:00;99524.78;;;21.09;58.71
56074;BME280;41950;55.840;37.442;2023-05-24T06:42:26;99542.34;;;21.23;58.80
56074;BME280;41950;55.840;37.442;2023-05-24T06:44:51;99530.22;;;21.20;58.29
56074;BME280;41950;55.840;37.442;2023-05-24T06:47:17;99517.22;;;21.17;57.94
56074;BME280;41950;55.840;37.442;2023-05-24T06:49:43;99518.06;;;21.18;58.25
56074;BME280;41950;55.840;37.442;2023-05-24T06:52:09;99509.28;;;21.17;58.31
56074;BME280;41950;55.840;37.442;2023-05-24T06:54:34;99521.63;;;21.17;58.41
56074;BME280;41950;55.840;37.442;2023-05-24T06:57:00;99522.13;;;21.23;59.34
56074;BME280;41950;55.840;37.442;2023-05-24T06:59:26;99533.03;;;21.32;57.90
56074;BME280;41950;55.840;37.442;2023-05-24T07:01:52;99507.69;;;21.15;57.76
56074;BME280;41950;55.840;37.442;2023-05-24T07:04:25;99529.09;;;21.24;58.71
56074;BME280;41950;55.840;37.442;2023-05-24T07:06:51;99533.31;;;21.27;57.94
56074;BME280;41950;55.840;37.442;2023-05-24T07:09:18;99532.84;;;21.20;58.20
56074;BME280;41950;55.840;37.442;2023-05-24T07:11:43;99509.59;;;21.13;57.90
56074;BME280;41950;55.840;37.442;2023-05-24T07:14:09;99524.81;;;21.22;58.07
56074;BME280;41950;55.840;37.442;2023-05-24T07:16:35;99540.00;;;21.18;57.38
56074;BME280;41950;55.840;37.442;2023-05-24T07:19:01;99532.84;;;21.06;58.38
56074;BME280;41950;55.840;37.442;2023-05-24T07:21:27;99532.03;;;20.91;57.66
56074;BME280;41950;55.840;37.442;2023-05-24T07:23:52;99548.59;;;20.93;57.85
56074;BME280;41950;55.840;37.442;2023-05-24T07:26:18;99541.06;;;21.02;57.76
56074;BME280;41950;55.840;37.442;2023-05-24T07:28:44;99544.94;;;21.10;57.79
56074;BME280;41950;55.840;37.442;2023-05-24T07:31:10;99536.53;;;21.04;57.96
56074;BME280;41950;55.840;37.442;2023-05-24T07:33:36;99548.88;;;21.03;57.33
56074;BME280;41950;55.840;37.442;2023-05-24T07:36:03;99550.22;;;20.96;57.45
56074;BME280;41950;55.840;37.442;2023-05-24T07:38:29;99547.38;;;21.13;58.47
56074;BME280;41950;55.840;37.442;2023-05-24T07:40:58;99542.09;;;21.27;57.03
56074;BME280;41950;55.840;37.442;2023-05-24T07:43:24;99554.03;;;21.33;57.36
56074;BME280;41950;55.840;37.442;2023-05-24T07:45:51;99550.00;;;21.27;57.04
56074;BME280;41950;55.840;37.442;2023-05-24T07:48:18;99527.66;;;21.19;57.17
56074;BME280;41950;55.840;37.442;2023-05-24T07:50:44;99540.84;;;21.33;57.79
56074;BME280;41950;55.840;37.442;2023-05-24T07:53:14;99555.22;;;21.56;56.61
56074;BME280;41950;55.840;37.442;2023-05-24T07:55:40;99519.63;;;21.35;55.80
56074;BME280;41950;55.840;37.442;2023-05-24T07:58:05;99557.53;;;21.48;56.01
56074;BME280;41950;55.840;37.442;2023-05-24T08:00:32;99532.59;;;21.25;56.22
56074;BME280;41950;55.840;37.442;2023-05-24T08:02:58;99545.91;;;21.50;56.09
56074;BME280;41950;55.840;37.442;2023-05-24T08:05:24;99538.03;;;21.63;54.71
56074;BME280;41950;55.840;37.442;2023-05-24T08:07:50;99556.50;;;21.90;54.58
56074;BME280;41950;55.840;37.442;2023-05-24T08:10:16;99551.38;;;22.01;54.23
56074;BME280;41950;55.840;37.442;2023-05-24T08:12:43;99560.94;;;22.04;54.94
56074;BME280;41950;55.840;37.442;2023-05-24T08:15:09;99563.91;;;22.12;54.89
56074;BME280;41950;55.840;37.442;2023-05-24T08:17:36;99565.81;;;22.10;54.57
56074;BME280;41950;55.840;37.442;2023-05-24T08:20:03;99541.81;;;21.86;54.68
56074;BME280;41950;55.840;37.442;2023-05-24T08:22:33;99525.22;;;21.57;55.22
56074;BME280;41950;55.840;37.442;2023-05-24T08:24:58;99551.44;;;21.60;55.39
56074;BME280;41950;55.840;37.442;2023-05-24T08:27:24;99560.72;;;21.53;55.36
56074;BME280;41950;55.840;37.442;2023-05-24T08:29:53;99560.09;;;21.62;56.42
56074;BME280;41950;55.840;37.442;2023-05-24T08:32:19;99553.22;;;21.59;55.38
56074;BME280;41950;55.840;37.442;2023-05-24T08:34:44;99559.09;;;21.65;55.70
56074;BME280;41950;55.840;37.442;2023-05-24T08:37:10;99552.78;;;21.53;55.86
56074;BME280;41950;55.840;37.442;2023-05-24T08:39:37;99561.94;;;21.47;55.96
56074;BME280;41950;55.840;37.442;2023-05-24T08:42:04;99549.63;;;21.19;55.97
56074;BME280;41950;55.840;37.442;2023-05-24T08:44:50;99555.19;;;21.15;55.80
56074;BME280;41950;55.840;37.442;2023-05-24T08:47:19;99550.13;;;20.97;55.58
56074;BME280;41950;55.840;37.442;2023-05-24T08:49:46;99553.41;;;21.01;55.74
56074;BME280;41950;55.840;37.442;2023-05-24T08:52:12;99561.13;;;21.18;55.71
56074;BME280;41950;55.840;37.442;2023-05-24T08:54:39;99546.31;;;21.44;56.16
56074;BME280;41950;55.840;37.442;2023-05-24T08:57:06;99549.53;;;21.62;54.64
56074;BME280;41950;55.840;37.442;2023-05-24T08:59:32;99542.22;;;21.80;55.16
56074;BME280;41950;55.840;37.442;2023-05-24T09:01:58;99564.31;;;22.06;54.66
56074;BME280;41950;55.840;37.442;2023-05-24T09:04:26;99569.84;;;22.15;54.67
56074;BME280;41950;55.840;37.442;2023-05-24T09:06:53;99559.06;;;22.18;53.35
56074;BME280;41950;55.840;37.442;2023-05-24T09:09:21;99551.00;;;22.07;52.91
56074;BME280;41950;55.840;37.442;2023-05-24T09:11:48;99560.94;;;22.04;53.24
56074;BME280;41950;55.840;37.442;2023-05-24T09:14:16;99550.75;;;21.98;53.46
56074;BME280;41950;55.840;37.442;2023-05-24T09:16:43;99530.03;;;21.92;53.50
56074;BME280;41950;55.840;37.442;2023-05-24T09:19:09;99545.81;;;22.06;53.85
56074;BME280;41950;55.840;37.442;2023-05-24T09:21:35;99556.22;;;22.22;53.46
56074;BME280;41950;55.840;37.442;2023-05-24T09:24:06;99565.53;;;22.27;53.82
56074;BME280;41950;55.840;37.442;2023-05-24T09:26:35;99537.84;;;22.20;53.14
56074;BME280;41950;55.840;37.442;2023-05-24T09:29:01;99552.75;;;22.34;53.60
56074;BME280;41950;55.840;37.442;2023-05-24T09:31:35;99537.00;;;22.32;52.97
56074;BME280;41950;55.840;37.442;2023-05-24T09:34:02;99545.59;;;22.48;53.96
56074;BME280;41950;55.840;37.442;2023-05-24T09:36:28;99569.91;;;22.79;51.77
56074;BME280;41950;55.840;37.442;2023-05-24T09:39:08;99562.09;;;22.90;51.51
56074;BME280;41950;55.840;37.442;2023-05-24T09:41:37;99552.78;;;22.97;51.54
56074;BME280;41950;55.840;37.442;2023-05-24T09:44:03;99563.31;;;23.23;50.50
56074;BME280;41950;55.840;37.442;2023-05-24T09:46:34;99533.28;;;22.98;49.84
56074;BME280;41950;55.840;37.442;2023-05-24T09:49:02;99542.22;;;22.85;50.28
56074;BME280;41950;55.840;37.442;2023-05-24T09:51:31;99562.28;;;23.12;51.65
56074;BME280;41950;55.840;37.442;2023-05-24T09:54:01;99555.88;;;23.40;51.12
56074;BME280;41950;55.840;37.442;2023-05-24T09:56:28;99562.41;;;23.48;50.16
56074;BME280;41950;55.840;37.442;2023-05-24T09:58:55;99561.78;;;23.44;50.26
56074;BME280;41950;55.840;37.442;2023-05-24T10:01:22;99531.81;;;23.07;49.78
56074;BME280;41950;55.840;37.442;2023-05-24T10:03:57;99548.81;;;23.52;48.47
56074;BME280;41950;55.840;37.442;2023-05-24T10:06:23;99568.31;;;24.12;47.95
56074;BME280;41950;55.840;37.442;2023-05-24T10:08:50;99542.81;;;24.79;45.40
56074;BME280;41950;55.840;37.442;2023-05-24T10:11:17;99527.88;;;25.01;44.71
56074;BME280;41950;55.840;37.442;2023-05-24T10:13:43;99527.13;;;24.87;45.68
56074;BME280;41950;55.840;37.442;2023-05-24T10:16:09;99565.34;;;24.62;45.00
56074;BME280;41950;55.840;37.442;2023-05-24T10:18:35;99564.25;;;24.65;45.69
56074;BME280;41950;55.840;37.442;2023-05-24T10:21:05;99558.50;;;24.82;44.21
56074;BME280;41950;55.840;37.442;2023-05-24T10:23:37;99552.81;;;24.87;43.25
56074;BME280;41950;55.840;37.442;2023-05-24T10:26:07;99571.75;;;24.82;43.43
56074;BME280;41950;55.840;37.442;2023-05-24T10:28:41;99569.56;;;24.54;44.97
56074;BME280;41950;55.840;37.442;2023-05-24T10:31:14;99580.53;;;24.60;45.83
56074;BME280;41950;55.840;37.442;2023-05-24T10:33:43;99566.91;;;24.65;44.83
56074;BME280;41950;55.840;37.442;2023-05-24T10:36:13;99580.69;;;24.70;44.24
56074;BME280;41950;55.840;37.442;2023-05-24T10:38:40;99575.81;;;24.64;43.06
56074;BME280;41950;55.840;37.442;2023-05-24T10:41:07;99543.94;;;24.30;44.25
56074;BME280;41950;55.840;37.442;2023-05-24T10:43:36;99535.50;;;24.01;45.67
56074;BME280;41950;55.840;37.442;2023-05-24T10:46:03;99571.06;;;24.10;44.92
56074;BME280;41950;55.840;37.442;2023-05-24T10:49:11;99579.59;;;24.02;44.62
56074;BME280;41950;55.840;37.442;2023-05-24T10:51:37;99569.56;;;23.71;45.11
56074;BME280;41950;55.840;37.442;2023-05-24T10:54:14;99566.25;;;23.43;45.10
56074;BME280;41950;55.840;37.442;2023-05-24T10:56:48;99560.91;;;23.20;45.86
56074;BME280;41950;55.840;37.442;2023-05-24T10:59:30;99579.13;;;23.11;46.28
56074;BME280;41950;55.840;37.442;2023-05-24T11:02:00;99558.25;;;22.69;46.67
56074;BME280;41950;55.840;37.442;2023-05-24T11:04:32;99587.25;;;22.58;47.55
56074;BME280;41950;55.840;37.442;2023-05-24T11:07:03;99559.06;;;22.18;48.90
56074;BME280;41950;55.840;37.442;2023-05-24T11:09:31;99581.16;;;22.17;49.30
56074;BME280;41950;55.840;37.442;2023-05-24T11:12:06;99564.81;;;21.98;49.82
56074;BME280;41950;55.840;37.442;2023-05-24T11:14:39;99577.28;;;21.96;51.12
56074;BME280;41950;55.840;37.442;2023-05-24T11:17:07;99594.19;;;21.94;50.16
56074;BME280;41950;55.840;37.442;2023-05-24T11:19:36;99589.91;;;21.91;50.59
56074;BME280;41950;55.840;37.442;2023-05-24T11:22:05;99574.13;;;21.77;50.54
56074;BME280;41950;55.840;37.442;2023-05-24T11:24:32;99599.69;;;21.76;51.08
56074;BME280;41950;55.840;37.442;2023-05-24T11:26:59;99598.00;;;21.75;51.81
56074;BME280;41950;55.840;37.442;2023-05-24T11:29:28;99574.25;;;21.61;51.83
56074;BME280;41950;55.840;37.442;2023-05-24T11:31:59;99600.53;;;21.77;51.99
56074;BME280;41950;55.840;37.442;2023-05-24T11:34:31;99598.22;;;21.72;51.83
56074;BME280;41950;55.840;37.442;2023-05-24T11:36:58;99598.31;;;21.71;51.37
56074;BME280;41950;55.840;37.442;2023-05-24T11:39:31;99597.47;;;21.70;51.46
56074;BME280;41950;55.840;37.442;2023-05-24T11:41:58;99579.53;;;21.61;51.95
56074;BME280;41950;55.840;37.442;2023-05-24T11:44:24;99601.19;;;21.80;51.89
56074;BME280;41950;55.840;37.442;2023-05-24T13:31:16;99577.88;;;23.04;49.73
56074;BME280;41950;55.840;37.442;2023-05-24T13:33:42;99557.09;;;23.11;49.77
56074;BME280;41950;55.840;37.442;2023-05-24T13:36:08;99542.91;;;22.99;49.51
56074;BME280;41950;55.840;37.442;2023-05-24T13:38:34;99563.69;;;23.05;49.59
56074;BME280;41950;55.840;37.442;2023-05-24T13:40:59;99519.03;;;22.75;49.48
56074;BME280;41950;55.840;37.442;2023-05-24T13:43:25;99553.22;;;23.04;49.50
56074;BME280;41950;55.840;37.442;2023-05-24T13:45:51;99558.56;;;23.15;49.42
56074;BME280;41950;55.840;37.442;2023-05-24T13:48:16;99593.41;;;23.34;49.58
56074;BME280;41950;55.840;37.442;2023-05-24T13:50:42;99527.59;;;22.92;49.38
56074;BME280;41950;55.840;37.442;2023-05-24T13:53:09;99595.59;;;23.28;48.98
56074;BME280;41950;55.840;37.442;2023-05-24T13:55:35;99526.22;;;22.86;49.40
56074;BME280;41950;55.840;37.442;2023-05-24T13:58:03;99582.22;;;23.05;48.94
56074;BME280;41950;55.840;37.442;2023-05-24T14:00:32;99522.53;;;22.50;49.36
56074;BME280;41950;55.840;37.442;2023-05-24T14:03:00;99591.09;;;22.79;49.27
56074;BME280;41950;55.840;37.442;2023-05-24T14:05:27;99593.22;;;22.74;49.13
56074;BME280;41950;55.840;37.442;2023-05-24T14:07:57;99578.69;;;22.67;48.28
56074;BME280;41950;55.840;37.442;2023-05-24T14:10:28;99596.88;;;22.71;47.85
56074;BME280;41950;55.840;37.442;2023-05-24T14:12:54;99577.44;;;22.47;48.62
56074;BME280;41950;55.840;37.442;2023-05-24T14:15:19;99596.25;;;22.55;49.00
56074;BME280;41950;55.840;37.442;2023-05-24T14:17:45;99530.91;;;22.17;49.03
56074;BME280;41950;55.840;37.442;2023-05-24T14:20:11;99585.78;;;22.54;48.68
56074;BME280;41950;55.840;37.442;2023-05-24T14:22:36;99584.41;;;22.61;49.20
56074;BME280;41950;55.840;37.442;2023-05-24T14:25:02;99594.06;;;22.74;48.76
56074;BME280;41950;55.840;37.442;2023-05-24T14:27:30;99584.72;;;22.69;48.62
56074;BME280;41950;55.840;37.442;2023-05-24T14:29:56;99568.44;;;22.62;49.31
56074;BME280;41950;55.840;37.442;2023-05-24T14:32:23;99553.50;;;22.48;49.32
56074;BME280;41950;55.840;37.442;2023-05-24T14:34:48;99516.13;;;22.15;49.41
56074;BME280;41950;55.840;37.442;2023-05-24T14:37:14;99462.81;;;21.96;49.37
56074;BME280;41950;55.840;37.442;2023-05-24T14:39:43;99588.31;;;22.68;49.39
56074;BME280;41950;55.840;37.442;2023-05-24T14:42:09;99561.75;;;22.57;48.96
56074;BME280;41950;55.840;37.442;2023-05-24T14:44:35;99564.50;;;22.68;49.07
56074;BME280;41950;55.840;37.442;2023-05-24T14:47:01;99554.13;;;22.65;48.75